Time;durP1;ratioP1;P1;durP2;ratioP2;P2;SDS_P1;SDS_P2;PMS_P1;PMS_P2;Temp;Humidity;BMP_temperature;BMP_pressure;BME280_temperature;BME280_humidity;BME280_pressure;Samples;Min_cycle;Max_cycle;Signal;HPM_P1;HPM_P2
2023/09/26 00:01:53;;;;;;;3.33;3.03;;;;;;;;;;5094438;28;20172;-48
2023/09/26 00:04:20;;;;;;;4.37;3.73;;;;;;;;;;5076309;28;20207;-50
2023/09/26 00:06:46;;;;;;;4.50;3.43;;;;;;;;;;5093919;28;20180;-49
2023/09/26 00:09:12;;;;;;;4.80;3.43;;;;;;;;;;5092830;28;20318;-50
2023/09/26 00:11:38;;;;;;;6.97;3.57;;;;;;;;;;5075865;28;20199;-47
2023/09/26 00:14:05;;;;;;;4.60;3.80;;;;;;;;;;5074670;28;20172;-50
2023/09/26 00:16:31;;;;;;;4.43;3.47;;;;;;;;;;5076914;28;20571;-48
2023/09/26 00:18:57;;;;;;;4.30;3.43;;;;;;;;;;5076224;28;20168;-48
2023/09/26 00:21:24;;;;;;;5.13;3.30;;;;;;;;;;5077000;28;20179;-48
2023/09/26 00:23:49;;;;;;;4.13;3.13;;;;;;;;;;5094093;28;20172;-48
2023/09/26 00:26:15;;;;;;;5.97;3.83;;;;;;;;;;5075749;28;20233;-48
2023/09/26 00:28:42;;;;;;;5.13;3.50;;;;;;;;;;5076446;28;20180;-47
2023/09/26 00:31:09;;;;;;;4.07;3.37;;;;;;;;;;5076910;28;20176;-47
2023/09/26 00:33:35;;;;;;;6.27;4.03;;;;;;;;;;5076538;28;20204;-49
2023/09/26 00:36:07;;;;;;;4.33;3.23;;;;;;;;;;5076119;28;20258;-48
2023/09/26 00:38:34;;;;;;;4.57;3.90;;;;;;;;;;5076568;28;20172;-48
2023/09/26 00:41:00;;;;;;;4.07;3.47;;;;;;;;;;5076634;28;20172;-50
2023/09/26 00:43:26;;;;;;;4.27;3.53;;;;;;;;;;5077367;28;20464;-52
2023/09/26 00:45:55;;;;;;;3.90;3.27;;;;;;;;;;5076761;28;20268;-52
2023/09/26 00:48:22;;;;;;;3.97;3.43;;;;;;;;;;5094461;28;20602;-48
2023/09/26 00:50:49;;;;;;;6.57;4.67;;;;;;;;;;5075635;28;20525;-50
2023/09/26 00:53:16;;;;;;;3.63;3.27;;;;;;;;;;5074979;28;20795;-47
2023/09/26 00:55:43;;;;;;;4.37;3.30;;;;;;;;;;5075682;28;20351;-48
2023/09/26 00:58:10;;;;;;;7.60;4.50;;;;;;;;;;5091894;28;20174;-49
2023/09/26 01:00:36;;;;;;;4.20;3.47;;;;;;;;;;5092498;28;20160;-48
2023/09/26 01:03:03;;;;;;;4.50;3.57;;;;;;;;;;5075746;28;20240;-49
2023/09/26 01:05:29;;;;;;;4.43;3.53;;;;;;;;;;5075493;28;20258;-51
2023/09/26 01:07:55;;;;;;;3.50;3.17;;;;;;;;;;5093418;28;20219;-49
2023/09/26 01:10:21;;;;;;;3.60;3.30;;;;;;;;;;5074178;28;20172;-49
2023/09/26 01:12:47;;;;;;;6.03;3.60;;;;;;;;;;5073533;28;20223;-51
2023/09/26 01:15:13;;;;;;;5.07;3.33;;;;;;;;;;5073621;28;20164;-50
2023/09/26 01:17:39;;;;;;;3.40;3.10;;;;;;;;;;5073549;28;20471;-51
2023/09/26 01:20:12;;;;;;;4.43;4.00;;;;;;;;;;5073471;28;20203;-49
2023/09/26 01:22:41;;;;;;;3.87;3.30;;;;;;;;;;5073631;28;20447;-47
2023/09/26 01:25:07;;;;;;;3.67;3.00;;;;;;;;;;5075257;28;20176;-48
2023/09/26 01:27:34;;;;;;;5.07;3.33;;;;;;;;;;5076034;28;20470;-47
2023/09/26 01:29:59;;;;;;;3.57;3.27;;;;;;;;;;5075899;28;20421;-48
2023/09/26 01:32:26;;;;;;;5.10;3.40;;;;;;;;;;5074798;28;20449;-49
2023/09/26 01:34:52;;;;;;;3.60;3.10;;;;;;;;;;5076025;28;20235;-47
2023/09/26 01:37:20;;;;;;;3.73;3.17;;;;;;;;;;5093035;28;20496;-49
2023/09/26 01:39:46;;;;;;;4.00;3.40;;;;;;;;;;5075986;28;20241;-47
2023/09/26 01:42:12;;;;;;;4.20;3.53;;;;;;;;;;5073925;28;20184;-48
2023/09/26 01:44:38;;;;;;;3.43;2.77;;;;;;;;;;5073328;28;20279;-48
2023/09/26 01:47:04;;;;;;;4.20;3.30;;;;;;;;;;5072466;28;20271;-51
2023/09/26 01:49:31;;;;;;;4.67;3.07;;;;;;;;;;5072785;28;20172;-49
2023/09/26 01:51:57;;;;;;;4.10;3.40;;;;;;;;;;5073437;28;20260;-49
2023/09/26 01:54:23;;;;;;;3.47;3.03;;;;;;;;;;5073292;28;20195;-53
2023/09/26 01:56:49;;;;;;;6.60;3.10;;;;;;;;;;5072892;28;20195;-49
2023/09/26 01:59:15;;;;;;;3.50;3.13;;;;;;;;;;5071878;28;20160;-49
2023/09/26 02:01:41;;;;;;;3.23;2.90;;;;;;;;;;5089177;28;20190;-49
2023/09/26 02:04:07;;;;;;;3.67;3.30;;;;;;;;;;5071349;28;20169;-52
2023/09/26 02:06:33;;;;;;;4.00;3.10;;;;;;;;;;5072613;28;20456;-48
2023/09/26 02:08:59;;;;;;;3.93;3.17;;;;;;;;;;5091003;28;20163;-48
2023/09/26 02:11:26;;;;;;;4.17;3.07;;;;;;;;;;5091562;28;20231;-49
2023/09/26 02:13:52;;;;;;;4.03;3.47;;;;;;;;;;5072953;28;20243;-47
2023/09/26 02:16:18;;;;;;;3.70;3.40;;;;;;;;;;5075272;28;20175;-48
2023/09/26 02:18:44;;;;;;;4.90;3.17;;;;;;;;;;5074858;28;20359;-50
2023/09/26 02:21:16;;;;;;;3.00;2.70;;;;;;;;;;5074717;28;20195;-48
2023/09/26 02:23:43;;;;;;;3.60;3.13;;;;;;;;;;5074632;28;20177;-48
2023/09/26 02:26:08;;;;;;;3.60;3.30;;;;;;;;;;5075099;28;20249;-48
2023/09/26 02:28:34;;;;;;;3.20;2.80;;;;;;;;;;5074397;28;20184;-49
2023/09/26 02:31:00;;;;;;;4.13;3.07;;;;;;;;;;5092910;28;20482;-49
2023/09/26 02:33:27;;;;;;;3.27;2.97;;;;;;;;;;5074468;28;20207;-47
2023/09/26 02:35:53;;;;;;;3.67;3.13;;;;;;;;;;5092135;28;20219;-50
2023/09/26 02:38:19;;;;;;;3.80;3.00;;;;;;;;;;5075079;28;20225;-50
2023/09/26 02:40:45;;;;;;;3.20;2.90;;;;;;;;;;5092277;28;20179;-47
2023/09/26 02:43:11;;;;;;;4.23;3.20;;;;;;;;;;5091125;28;20244;-47
2023/09/26 02:45:38;;;;;;;3.53;2.97;;;;;;;;;;5091574;28;20168;-52
2023/09/26 02:48:04;;;;;;;4.40;3.43;;;;;;;;;;5073131;28;20567;-47
2023/09/26 02:50:30;;;;;;;2.97;2.67;;;;;;;;;;5090370;28;20228;-47
2023/09/26 02:52:57;;;;;;;3.90;2.97;;;;;;;;;;5073642;28;20260;-52
2023/09/26 02:55:23;;;;;;;4.87;3.53;;;;;;;;;;5073193;28;20531;-49
2023/09/26 02:57:49;;;;;;;4.93;3.60;;;;;;;;;;5073681;28;20192;-47
2023/09/26 03:00:16;;;;;;;3.23;2.93;;;;;;;;;;5090880;28;20713;-48
2023/09/26 03:02:43;;;;;;;2.93;2.73;;;;;;;;;;5073612;28;20179;-51
2023/09/26 03:05:10;;;;;;;2.80;2.60;;;;;;;;;;5071303;28;20252;-48
2023/09/26 03:07:37;;;;;;;6.67;3.57;;;;;;;;;;5070402;28;20529;-50
2023/09/26 03:10:03;;;;;;;3.87;3.13;;;;;;;;;;5071823;28;20176;-49
2023/09/26 03:12:29;;;;;;;3.47;2.87;;;;;;;;;;5072316;28;20439;-48
2023/09/26 03:14:56;;;;;;;3.10;2.80;;;;;;;;;;5088413;28;20463;-47
2023/09/26 03:17:22;;;;;;;5.10;2.90;;;;;;;;;;5074475;28;20525;-47
2023/09/26 03:19:47;;;;;;;3.37;2.97;;;;;;;;;;5075852;28;20200;-49
2023/09/26 03:22:13;;;;;;;3.37;2.97;;;;;;;;;;5093143;28;20164;-49
2023/09/26 03:24:40;;;;;;;3.37;3.07;;;;;;;;;;5093673;28;20321;-49
2023/09/26 03:27:06;;;;;;;6.23;3.27;;;;;;;;;;5076416;28;20279;-52
2023/09/26 03:29:32;;;;;;;3.37;3.07;;;;;;;;;;5092706;28;20525;-50
2023/09/26 03:31:58;;;;;;;3.67;3.00;;;;;;;;;;5073709;28;20203;-48
2023/09/26 03:34:24;;;;;;;3.53;3.17;;;;;;;;;;5069798;28;20774;-51
2023/09/26 03:36:50;;;;;;;6.33;3.20;;;;;;;;;;5071741;28;20327;-49
2023/09/26 03:39:16;;;;;;;4.97;3.23;;;;;;;;;;5072618;28;20168;-49
2023/09/26 03:41:43;;;;;;;4.90;3.73;;;;;;;;;;5073978;28;20160;-49
2023/09/26 03:44:09;;;;;;;4.07;3.17;;;;;;;;;;5077736;28;20510;-47
2023/09/26 03:46:35;;;;;;;7.13;3.70;;;;;;;;;;5074155;28;20206;-50
2023/09/26 03:49:02;;;;;;;5.90;3.93;;;;;;;;;;5074832;28;20210;-49
2023/09/26 03:51:28;;;;;;;4.27;3.57;;;;;;;;;;5072911;28;20169;-47
2023/09/26 03:53:54;;;;;;;4.70;2.97;;;;;;;;;;5073508;28;20204;-48
2023/09/26 03:56:20;;;;;;;3.83;3.50;;;;;;;;;;5072683;28;20214;-47
2023/09/26 03:58:46;;;;;;;3.33;3.03;;;;;;;;;;5070205;28;20176;-48
2023/09/26 04:01:16;;;;;;;3.70;3.30;;;;;;;;;;5070919;28;20409;-48
2023/09/26 04:03:46;;;;;;;6.60;3.83;;;;;;;;;;5067877;28;20669;-50
2023/09/26 04:06:13;;;;;;;4.03;3.63;;;;;;;;;;5064789;28;20238;-48
2023/09/26 04:08:39;;;;;;;4.53;3.47;;;;;;;;;;5066527;28;20184;-52
2023/09/26 04:11:07;;;;;;;4.10;3.53;;;;;;;;;;5067282;28;20210;-48
2023/09/26 04:13:32;;;;;;;4.20;3.63;;;;;;;;;;5066281;28;20235;-47
2023/09/26 04:16:04;;;;;;;3.60;3.30;;;;;;;;;;5067768;28;20456;-50
2023/09/26 04:18:30;;;;;;;3.93;3.63;;;;;;;;;;5067591;28;20614;-50
2023/09/26 04:20:56;;;;;;;6.47;3.60;;;;;;;;;;5068491;28;20259;-48
2023/09/26 04:23:22;;;;;;;4.30;3.30;;;;;;;;;;5067899;28;20325;-47
2023/09/26 04:25:48;;;;;;;4.17;3.70;;;;;;;;;;5069180;28;20237;-50
2023/09/26 04:28:14;;;;;;;4.10;3.70;;;;;;;;;;5067326;28;20258;-47
2023/09/26 04:30:40;;;;;;;3.97;3.57;;;;;;;;;;5070839;28;20164;-48
2023/09/26 04:33:08;;;;;;;3.73;3.13;;;;;;;;;;5071433;28;20239;-48
2023/09/26 04:35:34;;;;;;;4.40;3.63;;;;;;;;;;5070995;28;20235;-51
2023/09/26 04:38:00;;;;;;;4.27;3.73;;;;;;;;;;5070533;28;20204;-50
2023/09/26 04:40:26;;;;;;;3.70;3.27;;;;;;;;;;5069075;28;20232;-49
2023/09/26 04:42:52;;;;;;;4.63;3.50;;;;;;;;;;5066408;28;20260;-49
2023/09/26 04:45:18;;;;;;;3.90;3.50;;;;;;;;;;5067057;28;20522;-49
2023/09/26 04:47:44;;;;;;;4.13;3.30;;;;;;;;;;5066451;28;20172;-49
2023/09/26 04:50:11;;;;;;;4.23;3.70;;;;;;;;;;5067681;28;20754;-47
2023/09/26 04:52:37;;;;;;;3.70;2.90;;;;;;;;;;5067391;28;20604;-51
2023/09/26 04:55:05;;;;;;;4.27;3.87;;;;;;;;;;5066631;28;20173;-49
2023/09/26 04:57:32;;;;;;;3.90;3.50;;;;;;;;;;5067278;28;20176;-47
2023/09/26 04:59:58;;;;;;;5.20;3.63;;;;;;;;;;5065712;28;20309;-47
2023/09/26 05:02:24;;;;;;;5.27;3.30;;;;;;;;;;5064041;28;20552;-50
2023/09/26 05:04:51;;;;;;;7.20;3.90;;;;;;;;;;5066383;28;20168;-47
2023/09/26 05:07:18;;;;;;;4.37;3.30;;;;;;;;;;5067115;28;20271;-48
2023/09/26 05:09:44;;;;;;;5.73;3.40;;;;;;;;;;5068073;28;20180;-51
2023/09/26 05:12:10;;;;;;;4.87;3.77;;;;;;;;;;5067363;28;20360;-49
2023/09/26 05:14:36;;;;;;;4.10;3.77;;;;;;;;;;5066990;28;20168;-47
2023/09/26 05:17:02;;;;;;;5.50;3.47;;;;;;;;;;5066435;28;20545;-51
2023/09/26 05:19:30;;;;;;;5.37;4.23;;;;;;;;;;5065670;28;20560;-47
2023/09/26 05:21:56;;;;;;;4.73;3.67;;;;;;;;;;5067805;28;20165;-48
2023/09/26 05:24:22;;;;;;;5.77;4.00;;;;;;;;;;5067230;28;20209;-47
2023/09/26 05:26:50;;;;;;;3.87;3.47;;;;;;;;;;5068045;28;20180;-48
2023/09/26 05:29:16;;;;;;;5.33;3.80;;;;;;;;;;5068507;28;20556;-47
2023/09/26 05:31:42;;;;;;;5.43;4.00;;;;;;;;;;5068995;28;20161;-48
2023/09/26 05:34:09;;;;;;;4.83;3.50;;;;;;;;;;5070239;28;20293;-48
2023/09/26 05:36:34;;;;;;;4.43;4.03;;;;;;;;;;5070255;28;20530;-51
2023/09/26 05:39:01;;;;;;;4.60;3.90;;;;;;;;;;5085929;28;20255;-50
2023/09/26 05:41:28;;;;;;;4.53;4.00;;;;;;;;;;5067911;28;20172;-49
2023/09/26 05:43:54;;;;;;;5.83;4.37;;;;;;;;;;5067345;28;20540;-49
2023/09/26 05:46:21;;;;;;;4.87;3.77;;;;;;;;;;5065716;28;20172;-49
2023/09/26 05:48:47;;;;;;;8.33;4.00;;;;;;;;;;5064646;28;20459;-47
2023/09/26 05:51:13;;;;;;;4.60;4.20;;;;;;;;;;5063521;28;20481;-47
2023/09/26 05:53:39;;;;;;;4.23;3.83;;;;;;;;;;5080743;28;20203;-47
2023/09/26 05:56:07;;;;;;;4.53;3.90;;;;;;;;;;5061007;28;20445;-48
2023/09/26 05:58:33;;;;;;;9.37;4.63;;;;;;;;;;5061697;28;20771;-47
2023/09/26 06:01:07;;;;;;;4.77;3.90;;;;;;;;;;5062205;28;20330;-47
2023/09/26 06:03:33;;;;;;;8.77;4.50;;;;;;;;;;5061681;28;20319;-48
2023/09/26 06:06:03;;;;;;;4.87;4.20;;;;;;;;;;5060918;28;20456;-47
2023/09/26 06:08:29;;;;;;;6.83;4.20;;;;;;;;;;5058826;28;20216;-47
2023/09/26 06:10:56;;;;;;;4.67;4.10;;;;;;;;;;5080057;28;20195;-49
2023/09/26 06:13:22;;;;;;;5.50;4.13;;;;;;;;;;5060925;28;20238;-50
2023/09/26 06:15:48;;;;;;;7.23;4.10;;;;;;;;;;5063732;28;20187;-48
2023/09/26 06:18:14;;;;;;;5.10;4.60;;;;;;;;;;5064655;28;20348;-49
2023/09/26 06:20:44;;;;;;;5.07;4.10;;;;;;;;;;5065294;28;20165;-47
2023/09/26 06:23:10;;;;;;;8.97;4.67;;;;;;;;;;5083781;28;20172;-53
2023/09/26 06:25:36;;;;;;;5.10;4.23;;;;;;;;;;5082633;28;20167;-49
2023/09/26 06:28:02;;;;;;;8.13;4.37;;;;;;;;;;5062194;28;20440;-49
2023/09/26 06:30:28;;;;;;;5.53;4.40;;;;;;;;;;5078939;28;20494;-48
2023/09/26 06:32:54;;;;;;;4.77;4.37;;;;;;;;;;5060811;28;20265;-47
2023/09/26 06:35:20;;;;;;;6.17;4.50;;;;;;;;;;5079913;28;20254;-48
2023/09/26 06:37:46;;;;;;;6.80;4.40;;;;;;;;;;5063192;28;20163;-48
2023/09/26 06:40:13;;;;;;;5.53;4.70;;;;;;;;;;5063475;28;20598;-48
2023/09/26 06:42:39;;;;;;;6.80;4.53;;;;;;;;;;5064687;28;20540;-48
2023/09/26 06:45:06;;;;;;;8.03;4.20;;;;;;;;;;5081133;28;20427;-50
2023/09/26 06:47:33;;;;;;;5.90;4.80;;;;;;;;;;5062980;28;20347;-49
2023/09/26 06:49:59;;;;;;;4.80;4.27;;;;;;;;;;5065870;28;20176;-50
2023/09/26 06:52:25;;;;;;;10.33;4.90;;;;;;;;;;5069694;28;20298;-50
2023/09/26 06:54:51;;;;;;;8.83;4.60;;;;;;;;;;5070715;28;20180;-49
2023/09/26 06:57:20;;;;;;;4.23;3.90;;;;;;;;;;5070067;28;20302;-49
2023/09/26 06:59:50;;;;;;;4.77;4.10;;;;;;;;;;5070741;28;20263;-50
2023/09/26 07:02:16;;;;;;;5.80;4.60;;;;;;;;;;5088769;28;20217;-51
2023/09/26 07:04:42;;;;;;;7.73;4.00;;;;;;;;;;5072608;28;20774;-49
2023/09/26 07:07:08;;;;;;;5.23;4.73;;;;;;;;;;5072319;28;20262;-51
2023/09/26 07:09:34;;;;;;;5.53;4.47;;;;;;;;;;5072276;28;20767;-49
2023/09/26 07:12:02;;;;;;;10.03;4.37;;;;;;;;;;5071221;28;20402;-51
2023/09/26 07:14:35;;;;;;;6.97;5.00;;;;;;;;;;5070949;28;20168;-48
2023/09/26 07:17:01;;;;;;;4.80;4.03;;;;;;;;;;5087432;28;20168;-49
2023/09/26 07:19:31;;;;;;;6.77;4.77;;;;;;;;;;5085008;28;20214;-48
2023/09/26 07:21:57;;;;;;;6.93;4.90;;;;;;;;;;5084145;28;20195;-49
2023/09/26 07:24:23;;;;;;;5.57;4.40;;;;;;;;;;5066959;28;20221;-50
2023/09/26 07:26:51;;;;;;;5.83;4.57;;;;;;;;;;5068674;28;20180;-48
2023/09/26 07:29:17;;;;;;;4.97;4.50;;;;;;;;;;5068050;28;20170;-53
2023/09/26 07:31:44;;;;;;;6.83;4.17;;;;;;;;;;5086670;28;20164;-48
2023/09/26 07:34:10;;;;;;;8.70;4.53;;;;;;;;;;5069122;28;20164;-49
2023/09/26 07:36:36;;;;;;;5.37;4.50;;;;;;;;;;5069406;28;20175;-51
2023/09/26 07:39:03;;;;;;;5.50;4.23;;;;;;;;;;5068840;28;20164;-48
2023/09/26 07:41:29;;;;;;;4.60;3.97;;;;;;;;;;5069571;28;20176;-51
2023/09/26 07:43:55;;;;;;;3.80;3.43;;;;;;;;;;5088035;28;20238;-49
2023/09/26 07:46:21;;;;;;;4.97;3.67;;;;;;;;;;5089694;28;20180;-49
2023/09/26 07:48:51;;;;;;;5.53;4.23;;;;;;;;;;5073227;28;20176;-49
2023/09/26 07:51:17;;;;;;;10.87;4.50;;;;;;;;;;5071473;28;20180;-49
2023/09/26 07:53:43;;;;;;;5.37;3.60;;;;;;;;;;5073919;28;20214;-48
2023/09/26 07:56:10;;;;;;;7.60;3.67;;;;;;;;;;5092703;28;20249;-49
2023/09/26 07:58:36;;;;;;;3.37;3.07;;;;;;;;;;5074344;28;20218;-50
2023/09/26 08:01:06;;;;;;;5.63;3.93;;;;;;;;;;5072660;28;20172;-50
2023/09/26 08:03:33;;;;;;;4.23;3.30;;;;;;;;;;5093535;28;20775;-53
2023/09/26 08:05:59;;;;;;;4.10;3.43;;;;;;;;;;5074748;28;20210;-48
2023/09/26 08:08:29;;;;;;;4.93;3.50;;;;;;;;;;5074291;28;20175;-51
2023/09/26 08:10:55;;;;;;;5.00;3.70;;;;;;;;;;5092493;28;20183;-48
2023/09/26 08:13:21;;;;;;;4.33;3.73;;;;;;;;;;5073457;28;20211;-55
2023/09/26 08:15:47;;;;;;;5.00;3.47;;;;;;;;;;5092181;28;20588;-51
2023/09/26 08:18:13;;;;;;;4.33;3.50;;;;;;;;;;5093828;28;20168;-47
2023/09/26 08:20:39;;;;;;;4.67;3.50;;;;;;;;;;5075345;28;20233;-50
2023/09/26 08:23:06;;;;;;;4.80;3.43;;;;;;;;;;5076356;28;20583;-50
2023/09/26 08:25:36;;;;;;;7.93;4.37;;;;;;;;;;5074974;28;20233;-54
2023/09/26 08:28:02;;;;;;;3.77;3.20;;;;;;;;;;5091472;28;20257;-50
2023/09/26 08:30:29;;;;;;;6.70;4.20;;;;;;;;;;5071530;28;20392;-50
2023/09/26 08:32:55;;;;;;;6.17;4.43;;;;;;;;;;5090167;28;20207;-49
2023/09/26 08:35:22;;;;;;;4.17;3.77;;;;;;;;;;5072487;28;20910;-48
2023/09/26 08:37:49;;;;;;;7.70;3.63;;;;;;;;;;5091145;28;20259;-54
2023/09/26 08:40:15;;;;;;;4.70;3.60;;;;;;;;;;5072578;28;20200;-48
2023/09/26 08:42:41;;;;;;;5.37;3.40;;;;;;;;;;5074045;28;20214;-49
2023/09/26 08:45:08;;;;;;;8.10;3.30;;;;;;;;;;5073381;28;20180;-51
2023/09/26 08:47:37;;;;;;;11.63;4.53;;;;;;;;;;5073161;28;20274;-49
2023/09/26 08:50:03;;;;;;;4.13;3.27;;;;;;;;;;5072433;28;20168;-51
2023/09/26 08:52:29;;;;;;;3.87;3.47;;;;;;;;;;5073117;28;20195;-50
2023/09/26 08:54:55;;;;;;;4.60;3.93;;;;;;;;;;5073821;28;20177;-52
2023/09/26 08:57:21;;;;;;;5.47;4.00;;;;;;;;;;5072945;28;20555;-54
2023/09/26 08:59:48;;;;;;;3.37;3.07;;;;;;;;;;5071998;28;20259;-50
2023/09/26 09:02:15;;;;;;;8.37;3.80;;;;;;;;;;5086688;28;20172;-49
2023/09/26 09:04:44;;;;;;;4.17;3.17;;;;;;;;;;5069566;28;20469;-48
2023/09/26 09:07:11;;;;;;;3.67;3.30;;;;;;;;;;5085629;28;20176;-49
2023/09/26 09:09:37;;;;;;;6.03;3.10;;;;;;;;;;5079125;28;20680;-51
2023/09/26 09:12:21;;;;;;;6.07;2.93;;;;;;;;;;5071144;28;20682;-47
2023/09/26 09:14:48;;;;;;;4.43;3.70;;;;;;;;;;5089084;28;20180;-50
2023/09/26 09:17:14;;;;;;;11.13;4.40;;;;;;;;;;5073771;28;20505;-50
2023/09/26 09:19:47;;;;;;;6.47;3.33;;;;;;;;;;5073782;28;20830;-48
2023/09/26 09:22:17;;;;;;;7.47;3.23;;;;;;;;;;5091825;28;20195;-50
2023/09/26 09:24:44;;;;;;;3.93;3.53;;;;;;;;;;5091885;28;20706;-50
2023/09/26 09:27:10;;;;;;;6.37;2.87;;;;;;;;;;5074507;28;20705;-49
2023/09/26 09:29:36;;;;;;;5.40;2.80;;;;;;;;;;5072993;28;20182;-52
2023/09/26 09:32:03;;;;;;;3.93;3.13;;;;;;;;;;5071771;28;20168;-48
2023/09/26 09:34:29;;;;;;;8.37;4.70;;;;;;;;;;5070783;28;20240;-49
2023/09/26 09:36:56;;;;;;;7.47;3.00;;;;;;;;;;5069354;28;20172;-50
2023/09/26 09:39:22;;;;;;;7.33;3.37;;;;;;;;;;5067643;28;20180;-48
2023/09/26 09:41:49;;;;;;;6.97;2.80;;;;;;;;;;5068983;28;20184;-51
2023/09/26 09:44:15;;;;;;;6.47;4.47;;;;;;;;;;5069751;28;20175;-51
2023/09/26 09:46:43;;;;;;;4.70;3.60;;;;;;;;;;5069374;28;20172;-52
2023/09/26 09:49:10;;;;;;;5.47;4.00;;;;;;;;;;5071868;28;20187;-48
2023/09/26 09:51:42;;;;;;;7.10;4.50;;;;;;;;;;5091953;28;20665;-49
2023/09/26 09:54:12;;;;;;;6.83;4.87;;;;;;;;;;5072746;28;20666;-48
2023/09/26 09:56:39;;;;;;;5.20;3.63;;;;;;;;;;5072429;28;20176;-50
2023/09/26 09:59:08;;;;;;;4.27;3.53;;;;;;;;;;5070013;28;20263;-51
2023/09/26 10:01:35;;;;;;;5.20;3.50;;;;;;;;;;5072082;28;20168;-50
2023/09/26 10:04:02;;;;;;;4.23;3.33;;;;;;;;;;5073338;28;20176;-50
2023/09/26 10:06:28;;;;;;;4.03;2.83;;;;;;;;;;5071959;28;20199;-50
2023/09/26 10:08:54;;;;;;;5.90;4.00;;;;;;;;;;5070765;28;20180;-49
2023/09/26 10:11:21;;;;;;;5.57;3.53;;;;;;;;;;5084812;28;20168;-50
2023/09/26 10:13:48;;;;;;;4.17;2.60;;;;;;;;;;5068809;28;20261;-52
2023/09/26 10:16:16;;;;;;;4.20;2.90;;;;;;;;;;5070159;28;20183;-53
2023/09/26 10:18:43;;;;;;;3.37;2.20;;;;;;;;;;5069396;28;20236;-50
2023/09/26 10:21:28;;;;;;;5.60;3.00;;;;;;;;;;5070232;28;20761;-50
2023/09/26 10:24:17;;;;;;;3.40;2.43;;;;;;;;;;5070773;28;20168;-52
2023/09/26 10:26:44;;;;;;;9.37;3.43;;;;;;;;;;5055219;28;20521;-50
2023/09/26 10:29:12;;;;;;;7.50;3.23;;;;;;;;;;5070987;28;20175;-52
2023/09/26 10:31:53;;;;;;;4.57;3.13;;;;;;;;;;5054690;28;20175;-50
2023/09/26 10:34:20;;;;;;;7.87;3.13;;;;;;;;;;5069925;28;20328;-51
2023/09/26 10:36:47;;;;;;;6.00;3.27;;;;;;;;;;5087360;28;20179;-50
2023/09/26 10:39:14;;;;;;;7.13;3.63;;;;;;;;;;5069789;28;20168;-51
2023/09/26 10:41:40;;;;;;;4.13;3.03;;;;;;;;;;5090470;28;20325;-53
2023/09/26 10:44:07;;;;;;;4.63;2.40;;;;;;;;;;5073135;28;20176;-49
2023/09/26 10:46:33;;;;;;;7.67;2.80;;;;;;;;;;5074095;28;20186;-51
2023/09/26 10:48:59;;;;;;;5.93;3.00;;;;;;;;;;5072527;28;20267;-51
2023/09/26 10:51:25;;;;;;;4.90;2.30;;;;;;;;;;5070633;28;20225;-50
2023/09/26 10:53:51;;;;;;;5.17;4.00;;;;;;;;;;5087946;28;20199;-52
2023/09/26 10:56:17;;;;;;;4.60;3.17;;;;;;;;;;5089269;28;20160;-51
2023/09/26 10:58:45;;;;;;;7.97;2.90;;;;;;;;;;5070255;28;20238;-48
2023/09/26 11:01:11;;;;;;;4.20;2.80;;;;;;;;;;5069141;28;20237;-52
2023/09/26 11:03:37;;;;;;;4.13;3.10;;;;;;;;;;5088644;28;20168;-50
2023/09/26 11:06:04;;;;;;;4.63;3.73;;;;;;;;;;5089536;28;20718;-52
2023/09/26 11:08:30;;;;;;;4.63;3.00;;;;;;;;;;5073395;28;20240;-50
2023/09/26 11:10:57;;;;;;;3.70;2.50;;;;;;;;;;5089905;28;20822;-50
2023/09/26 11:13:23;;;;;;;4.03;3.23;;;;;;;;;;5071375;28;20222;-51
2023/09/26 11:15:53;;;;;;;3.47;2.57;;;;;;;;;;5071178;28;20172;-48
2023/09/26 11:18:19;;;;;;;5.87;3.20;;;;;;;;;;5087204;28;20194;-49
2023/09/26 11:20:45;;;;;;;4.70;3.13;;;;;;;;;;5088521;28;20164;-52
2023/09/26 11:23:12;;;;;;;4.07;3.10;;;;;;;;;;5087685;28;20203;-48
2023/09/26 11:25:42;;;;;;;5.03;3.07;;;;;;;;;;5069157;28;20172;-50
2023/09/26 11:28:08;;;;;;;7.63;3.20;;;;;;;;;;5067976;28;20176;-52
2023/09/26 11:30:34;;;;;;;2.77;2.37;;;;;;;;;;5084892;28;20176;-52
2023/09/26 11:33:00;;;;;;;3.07;2.30;;;;;;;;;;5065527;28;20192;-50
2023/09/26 11:35:27;;;;;;;6.57;2.93;;;;;;;;;;5083091;28;20219;-51
2023/09/26 11:37:53;;;;;;;3.60;2.80;;;;;;;;;;5066255;28;20221;-50
2023/09/26 11:40:26;;;;;;;3.07;2.43;;;;;;;;;;5071592;28;20252;-51
2023/09/26 11:42:55;;;;;;;3.50;2.70;;;;;;;;;;5090571;28;20184;-49
2023/09/26 11:45:30;;;;;;;4.00;2.80;;;;;;;;;;5091609;28;20380;-52
2023/09/26 11:47:56;;;;;;;6.03;2.47;;;;;;;;;;5074460;28;20178;-48
2023/09/26 11:50:23;;;;;;;4.03;2.60;;;;;;;;;;5074955;28;20457;-48
2023/09/26 11:52:50;;;;;;;3.37;1.97;;;;;;;;;;5073193;28;20469;-52
2023/09/26 11:55:17;;;;;;;2.97;2.50;;;;;;;;;;5074924;28;20564;-50
2023/09/26 11:57:43;;;;;;;4.90;2.37;;;;;;;;;;5093133;28;20469;-52
2023/09/26 12:00:15;;;;;;;3.03;2.57;;;;;;;;;;5076056;28;20178;-49
2023/09/26 12:02:43;;;;;;;4.37;2.17;;;;;;;;;;5077474;28;20804;-50
2023/09/26 12:05:11;;;;;;;2.23;1.87;;;;;;;;;;5077849;28;20168;-48
2023/09/26 12:07:37;;;;;;;2.20;2.00;;;;;;;;;;5076690;28;20168;-48
2023/09/26 12:10:04;;;;;;;3.07;1.93;;;;;;;;;;5092953;28;20274;-49
2023/09/26 12:12:30;;;;;;;2.77;2.40;;;;;;;;;;5074394;28;20204;-49
2023/09/26 12:15:15;;;;;;;3.33;2.13;;;;;;;;;;5090621;28;20225;-52
2023/09/26 12:17:41;;;;;;;4.37;2.50;;;;;;;;;;5073557;28;20274;-50
2023/09/26 12:20:08;;;;;;;2.00;1.70;;;;;;;;;;5071966;28;20247;-52
2023/09/26 12:22:34;;;;;;;2.90;2.10;;;;;;;;;;5084628;28;20199;-48
2023/09/26 12:25:00;;;;;;;3.13;2.00;;;;;;;;;;5084268;28;20502;-51
2023/09/26 12:27:27;;;;;;;4.83;2.27;;;;;;;;;;5066328;28;20172;-48
2023/09/26 12:29:53;;;;;;;3.17;1.77;;;;;;;;;;5084884;28;20164;-51
2023/09/26 12:32:19;;;;;;;2.23;1.97;;;;;;;;;;5066435;28;20531;-52
2023/09/26 12:34:45;;;;;;;5.03;1.63;;;;;;;;;;5066122;28;20247;-48
2023/09/26 12:37:11;;;;;;;2.70;2.03;;;;;;;;;;5086021;28;20731;-50
2023/09/26 12:39:37;;;;;;;3.30;1.80;;;;;;;;;;5084350;28;20718;-48
2023/09/26 12:42:03;;;;;;;2.77;2.00;;;;;;;;;;5066260;28;20341;-48
2023/09/26 12:44:29;;;;;;;2.67;1.80;;;;;;;;;;5067077;28;20577;-48
2023/09/26 12:46:56;;;;;;;3.40;2.03;;;;;;;;;;5064740;28;20680;-48
2023/09/26 12:49:23;;;;;;;1.90;1.60;;;;;;;;;;5066063;28;20172;-51
2023/09/26 12:51:49;;;;;;;2.43;1.70;;;;;;;;;;5083390;28;20168;-50
2023/09/26 12:54:15;;;;;;;2.23;1.73;;;;;;;;;;5082866;28;20254;-48
2023/09/26 12:56:41;;;;;;;2.13;1.83;;;;;;;;;;5067235;28;20267;-50
2023/09/26 12:59:07;;;;;;;2.00;1.77;;;;;;;;;;5066722;28;20464;-48
2023/09/26 13:01:34;;;;;;;3.03;1.73;;;;;;;;;;5067461;28;20168;-48
2023/09/26 13:04:00;;;;;;;3.70;1.93;;;;;;;;;;5068572;28;20168;-50
2023/09/26 13:06:26;;;;;;;4.00;1.90;;;;;;;;;;5065890;28;20359;-51
2023/09/26 13:08:52;;;;;;;1.73;1.63;;;;;;;;;;5066607;28;20443;-49
2023/09/26 13:11:18;;;;;;;2.77;1.80;;;;;;;;;;5066474;28;20183;-48
2023/09/26 13:13:44;;;;;;;3.10;1.40;;;;;;;;;;5065607;28;20246;-50
2023/09/26 13:16:10;;;;;;;3.30;1.73;;;;;;;;;;5062662;28;20240;-48
2023/09/26 13:18:37;;;;;;;6.30;2.00;;;;;;;;;;5062347;28;20177;-49
2023/09/26 13:21:03;;;;;;;4.00;1.90;;;;;;;;;;5062768;28;20172;-51
2023/09/26 13:23:29;;;;;;;3.53;1.90;;;;;;;;;;5080559;28;20459;-48
2023/09/26 13:25:55;;;;;;;1.40;1.27;;;;;;;;;;5062152;28;20545;-47
2023/09/26 13:28:21;;;;;;;2.37;1.60;;;;;;;;;;5083629;28;20179;-50
2023/09/26 13:30:47;;;;;;;2.80;1.53;;;;;;;;;;5072157;28;20164;-51
2023/09/26 13:33:14;;;;;;;6.73;1.93;;;;;;;;;;5071520;28;20207;-48
2023/09/26 13:35:41;;;;;;;2.20;2.00;;;;;;;;;;5068747;28;20227;-49
2023/09/26 13:38:07;;;;;;;1.93;1.63;;;;;;;;;;5068983;28;20232;-52
2023/09/26 13:40:32;;;;;;;2.97;1.70;;;;;;;;;;5069019;28;20184;-53
2023/09/26 13:42:58;;;;;;;3.47;1.80;;;;;;;;;;5069675;28;20702;-52
2023/09/26 13:45:24;;;;;;;2.07;1.57;;;;;;;;;;5071466;28;20168;-53
2023/09/26 13:47:50;;;;;;;5.28;2.00;;;;;;;;;;5071057;28;20215;-52
2023/09/26 13:50:16;;;;;;;3.33;1.88;;;;;;;;;;5088839;28;20847;-52
2023/09/26 13:52:42;;;;;;;2.03;1.83;;;;;;;;;;5071337;28;20231;-51
2023/09/26 13:55:09;;;;;;;3.33;2.00;;;;;;;;;;5070097;28;20210;-54
2023/09/26 13:57:35;;;;;;;2.60;1.67;;;;;;;;;;5089186;28;20160;-53
2023/09/26 14:00:01;;;;;;;2.20;1.73;;;;;;;;;;5088650;28;20172;-49
2023/09/26 14:02:27;;;;;;;3.50;1.90;;;;;;;;;;5072396;28;20168;-48
2023/09/26 14:04:53;;;;;;;3.42;2.03;;;;;;;;;;5089841;28;20221;-51
2023/09/26 14:07:20;;;;;;;2.83;1.75;;;;;;;;;;5071850;28;20175;-48
2023/09/26 14:09:47;;;;;;;2.63;1.70;;;;;;;;;;5090179;28;20164;-50
2023/09/26 14:12:13;;;;;;;1.77;1.57;;;;;;;;;;5090891;28;20559;-49
2023/09/26 14:14:41;;;;;;;5.90;1.98;;;;;;;;;;5072668;28;20228;-48
2023/09/26 14:17:07;;;;;;;2.72;1.83;;;;;;;;;;5072176;28;20707;-49
2023/09/26 14:19:33;;;;;;;1.60;1.50;;;;;;;;;;5071875;28;20172;-52
2023/09/26 14:21:59;;;;;;;3.80;1.90;;;;;;;;;;5071725;28;20171;-51
2023/09/26 14:24:25;;;;;;;2.65;1.85;;;;;;;;;;5070064;28;20179;-49
2023/09/26 14:26:51;;;;;;;1.98;1.60;;;;;;;;;;5087071;28;20168;-51
2023/09/26 14:29:18;;;;;;;2.08;1.88;;;;;;;;;;5087373;28;20461;-51
2023/09/26 14:31:44;;;;;;;1.77;1.67;;;;;;;;;;5068932;28;20175;-52
2023/09/26 14:34:10;;;;;;;7.20;1.67;;;;;;;;;;5067467;28;20294;-49
2023/09/26 14:36:37;;;;;;;3.05;1.80;;;;;;;;;;5082889;28;20233;-50
2023/09/26 14:39:03;;;;;;;3.17;2.03;;;;;;;;;;5064603;28;20164;-51
2023/09/26 14:41:31;;;;;;;3.08;2.40;;;;;;;;;;5080865;28;20168;-50